Time;durP1;ratioP1;P1;durP2;ratioP2;P2;SDS_P1;SDS_P2;PMS_P1;PMS_P2;Temp;Humidity;BMP_temperature;BMP_pressure;BME280_temperature;BME280_humidity;BME280_pressure;Samples;Min_cycle;Max_cycle;Signal;HPM_P1;HPM_P2
2021/12/01 00:00:29;;;;;;;9.20;5.70;;;-1.10;99.90;;;;;;5052747;28;20184;-75
2021/12/01 00:02:55;;;;;;;9.63;5.72;;;-1.00;99.90;;;;;;5052521;28;20197;-75
2021/12/01 00:05:28;;;;;;;8.05;5.15;;;-1.10;99.90;;;;;;5070610;28;20165;-75
2021/12/01 00:07:54;;;;;;;11.23;6.78;;;-1.10;99.90;;;;;;5052678;28;20174;-75
2021/12/01 00:10:22;;;;;;;16.50;7.07;;;-1.10;99.90;;;;;;5043602;28;20185;-75
2021/12/01 00:12:48;;;;;;;11.25;6.28;;;-1.00;99.90;;;;;;5050351;28;20189;-75
2021/12/01 00:15:14;;;;;;;10.25;5.75;;;-1.00;99.90;;;;;;5066369;28;20192;-75
2021/12/01 00:17:40;;;;;;;10.25;6.45;;;-1.00;99.90;;;;;;5052425;28;20222;-75
2021/12/01 00:20:12;;;;;;;13.32;6.85;;;-1.20;99.90;;;;;;5070250;28;20153;-75
2021/12/01 00:22:39;;;;;;;10.25;5.63;;;-1.20;99.90;;;;;;5069981;28;20250;-75
2021/12/01 00:25:07;;;;;;;9.13;6.18;;;-1.20;99.90;;;;;;5051855;28;20202;-74
2021/12/01 00:27:33;;;;;;;7.47;5.57;;;-1.30;99.90;;;;;;5052268;28;20165;-75
2021/12/01 00:29:59;;;;;;;10.82;5.47;;;-1.20;99.90;;;;;;5070010;28;20167;-75
2021/12/01 00:32:25;;;;;;;10.70;5.82;;;-1.20;99.90;;;;;;5069984;28;20232;-75
2021/12/01 00:34:52;;;;;;;12.80;6.32;;;-1.20;99.90;;;;;;5052049;28;20196;-75
2021/12/01 00:37:18;;;;;;;11.05;6.28;;;-1.10;99.90;;;;;;5051788;28;20691;-75
2021/12/01 00:39:44;;;;;;;15.15;6.22;;;-1.10;99.90;;;;;;5051934;28;20171;-75
2021/12/01 00:42:12;;;;;;;12.15;7.82;;;-1.10;99.90;;;;;;5051801;28;20161;-75
2021/12/01 00:44:45;;;;;;;15.52;6.70;;;-1.00;99.90;;;;;;5069995;28;20179;-75
2021/12/01 00:47:13;;;;;;;17.83;7.22;;;-0.90;99.90;;;;;;5069820;28;20220;-75
2021/12/01 00:49:40;;;;;;;12.63;6.45;;;-0.90;99.90;;;;;;5069806;28;20177;-73
2021/12/01 00:52:06;;;;;;;7.40;5.03;;;-0.90;99.90;;;;;;5069423;28;20161;-73
2021/12/01 00:54:36;;;;;;;6.28;5.25;;;-1.00;99.90;;;;;;5051586;28;20267;-73
2021/12/01 00:57:01;;;;;;;13.98;6.15;;;-0.90;99.90;;;;;;5069672;28;20182;-74
2021/12/01 00:59:27;;;;;;;9.75;6.22;;;-0.90;99.90;;;;;;5051653;28;20172;-74
2021/12/01 01:01:54;;;;;;;13.07;6.95;;;-0.80;99.90;;;;;;5051624;28;20194;-73
2021/12/01 01:04:19;;;;;;;13.70;6.10;;;-0.80;99.90;;;;;;5069412;28;20192;-74
2021/12/01 01:06:45;;;;;;;12.02;6.40;;;-0.80;99.90;;;;;;5069113;28;20225;-74
2021/12/01 01:09:11;;;;;;;10.27;5.15;;;-0.70;99.90;;;;;;5068959;28;20176;-74
2021/12/01 01:17:13;;;;;;;10.60;5.18;;;-0.50;99.90;;;;;;5069283;28;20167;-75
2021/12/01 01:19:40;;;;;;;8.88;3.83;;;-0.30;99.90;;;;;;5051338;28;20648;-75
2021/12/01 01:22:07;;;;;;;14.77;6.13;;;-0.40;99.90;;;;;;5069037;28;20240;-74
2021/12/01 01:24:34;;;;;;;10.13;4.90;;;-0.50;99.90;;;;;;5069025;28;20197;-74
2021/12/01 01:27:00;;;;;;;7.60;5.03;;;-0.50;99.90;;;;;;5069071;28;20153;-74
2021/12/01 01:29:27;;;;;;;8.48;5.43;;;-0.30;99.90;;;;;;5069106;28;20165;-73
2021/12/01 01:31:56;;;;;;;8.45;4.30;;;-0.10;99.90;;;;;;5069108;28;20551;-74
2021/12/01 01:34:24;;;;;;;8.18;4.00;;;0.00;99.90;;;;;;5069011;28;20199;-73
2021/12/01 01:36:51;;;;;;;10.25;4.68;;;-0.10;99.90;;;;;;5068709;28;20165;-74
2021/12/01 01:39:19;;;;;;;5.18;4.05;;;-0.20;99.90;;;;;;5051126;28;20184;-74
2021/12/01 01:41:45;;;;;;;5.97;4.20;;;-0.10;99.90;;;;;;5051097;28;20173;-74
2021/12/01 01:44:11;;;;;;;5.28;3.90;;;0.10;99.90;;;;;;5068980;28;20215;-74
2021/12/01 01:46:39;;;;;;;4.07;3.22;;;0.10;99.90;;;;;;5068990;28;20164;-74
2021/12/01 01:49:10;;;;;;;7.95;4.22;;;0.10;99.90;;;;;;5068971;28;20165;-75
2021/12/01 01:51:37;;;;;;;7.43;4.00;;;0.00;99.90;;;;;;5068984;28;20153;-74
2021/12/01 01:54:03;;;;;;;4.90;3.08;;;-0.20;99.90;;;;;;5050844;28;20210;-74
2021/12/01 01:56:30;;;;;;;5.32;3.50;;;-0.10;99.90;;;;;;5068847;28;20153;-74
2021/12/01 01:58:55;;;;;;;7.00;3.63;;;0.00;99.90;;;;;;5068915;28;20157;-74
2021/12/01 02:04:08;;;;;;;5.93;3.33;;;0.00;99.90;;;;;;5069496;28;20198;-74
2021/12/01 02:06:35;;;;;;;8.40;3.15;;;-0.10;99.90;;;;;;5072853;28;20165;-74
2021/12/01 02:09:02;;;;;;;6.80;3.65;;;0.00;99.90;;;;;;5072844;28;20211;-74
2021/12/01 02:11:29;;;;;;;5.03;2.67;;;-0.10;99.90;;;;;;5054780;28;20176;-75
2021/12/01 02:13:57;;;;;;;6.60;3.75;;;0.00;99.90;;;;;;5056834;28;20197;-74
2021/12/01 02:16:23;;;;;;;4.40;3.53;;;-0.20;99.90;;;;;;5072636;28;20193;-74
2021/12/01 02:18:49;;;;;;;5.68;3.58;;;-0.20;99.90;;;;;;5054749;28;20189;-74
2021/12/01 02:21:27;;;;;;;7.22;4.45;;;-0.10;99.90;;;;;;5051092;28;20247;-74
2021/12/01 02:23:58;;;;;;;8.30;3.60;;;-0.20;99.90;;;;;;5051104;28;20215;-75
2021/12/01 02:26:26;;;;;;;5.22;2.63;;;-0.10;99.90;;;;;;5052419;28;20168;-74
2021/12/01 02:28:56;;;;;;;10.98;4.50;;;-0.10;99.90;;;;;;5051149;28;20199;-74
2021/12/01 02:31:25;;;;;;;4.63;3.58;;;-0.10;99.90;;;;;;5052126;28;20169;-75
2021/12/01 02:33:53;;;;;;;4.18;3.55;;;-0.10;99.90;;;;;;5052340;28;20189;-75
2021/12/01 02:36:19;;;;;;;4.47;3.58;;;-0.10;99.90;;;;;;5052283;28;20204;-74
2021/12/01 02:38:47;;;;;;;4.32;3.35;;;-0.20;99.90;;;;;;5052309;28;20161;-75
2021/12/01 02:41:14;;;;;;;7.13;3.88;;;-0.30;99.90;;;;;;5050923;28;20169;-74
2021/12/01 02:43:42;;;;;;;7.57;4.32;;;-0.20;99.90;;;;;;5049741;28;20209;-74
2021/12/01 02:46:08;;;;;;;5.65;3.50;;;-0.30;99.90;;;;;;5050703;28;20181;-74
2021/12/01 02:48:41;;;;;;;7.90;3.60;;;-0.20;99.90;;;;;;5051564;28;20244;-73
2021/12/01 02:51:10;;;;;;;7.30;3.63;;;-0.10;99.90;;;;;;5051953;28;20161;-75
2021/12/01 02:53:38;;;;;;;4.30;3.42;;;0.00;99.90;;;;;;5051968;28;20196;-74
2021/12/01 02:56:05;;;;;;;13.25;4.70;;;-0.10;99.90;;;;;;5050548;28;20197;-72
2021/12/01 02:58:38;;;;;;;5.45;3.65;;;0.00;99.90;;;;;;5050686;28;20274;-73
2021/12/01 03:01:09;;;;;;;7.80;3.63;;;-0.10;99.90;;;;;;5051970;28;20164;-72
2021/12/01 03:03:35;;;;;;;4.85;3.70;;;-0.10;99.90;;;;;;5050454;28;20272;-73
2021/12/01 03:06:03;;;;;;;7.63;3.13;;;-0.30;99.90;;;;;;5051769;28;20157;-73
2021/12/01 03:08:29;;;;;;;4.40;3.10;;;-0.30;99.90;;;;;;5050155;28;20177;-74
2021/12/01 03:10:55;;;;;;;8.23;3.53;;;-0.30;99.90;;;;;;5051259;28;20694;-74
2021/12/01 03:13:23;;;;;;;6.35;3.90;;;-0.30;99.90;;;;;;5049902;28;20223;-74
2021/12/01 03:15:49;;;;;;;9.55;3.65;;;-0.30;99.90;;;;;;5051128;28;20181;-76
2021/12/01 03:18:17;;;;;;;5.80;3.28;;;-0.10;99.90;;;;;;5050865;28;20184;-75
2021/12/01 03:20:44;;;;;;;5.03;3.58;;;-0.10;99.90;;;;;;5050744;28;20184;-76
2021/12/01 03:23:10;;;;;;;5.00;3.78;;;-0.20;99.90;;;;;;5071079;28;20193;-75
2021/12/01 03:25:36;;;;;;;6.13;2.80;;;-0.40;99.90;;;;;;5071126;28;20255;-75
2021/12/01 03:28:03;;;;;;;7.50;3.15;;;-0.40;99.90;;;;;;5071010;28;20157;-75
2021/12/01 03:30:34;;;;;;;7.53;3.90;;;-0.40;99.90;;;;;;5053024;28;20193;-75
2021/12/01 03:33:02;;;;;;;4.25;2.97;;;-0.40;99.90;;;;;;5052843;28;20196;-76
2021/12/01 03:35:28;;;;;;;4.20;3.25;;;-0.40;99.90;;;;;;5052766;28;20283;-75
2021/12/01 03:37:54;;;;;;;7.78;5.05;;;-0.20;99.90;;;;;;5052877;28;20169;-76
2021/12/01 03:40:20;;;;;;;6.90;3.92;;;-0.10;99.90;;;;;;5052850;28;20194;-76
2021/12/01 03:42:46;;;;;;;5.20;3.95;;;0.10;99.90;;;;;;5070739;28;20192;-75
2021/12/01 03:45:14;;;;;;;5.53;2.88;;;0.10;99.90;;;;;;5070357;28;20232;-76
2021/12/01 03:47:39;;;;;;;6.80;4.07;;;0.10;99.90;;;;;;5052491;28;20172;-75
2021/12/01 03:50:06;;;;;;;3.80;2.72;;;0.10;99.90;;;;;;5052556;28;20169;-75
2021/12/01 03:52:32;;;;;;;3.95;2.97;;;0.20;99.90;;;;;;5070476;28;20172;-75
2021/12/01 03:54:59;;;;;;;4.50;2.92;;;0.30;99.90;;;;;;5070186;28;20220;-75
2021/12/01 03:57:25;;;;;;;5.88;3.47;;;0.30;99.90;;;;;;5070394;28;20157;-74
2021/12/01 03:59:52;;;;;;;5.28;4.20;;;0.30;99.90;;;;;;5070370;28;20217;-74
2021/12/01 04:02:18;;;;;;;3.90;3.13;;;0.30;99.90;;;;;;5052468;28;20168;-75
2021/12/01 04:04:43;;;;;;;4.00;3.45;;;0.40;99.90;;;;;;5070193;28;20215;-75
2021/12/01 04:07:09;;;;;;;7.13;3.88;;;0.30;99.90;;;;;;5052274;28;20173;-74
2021/12/01 04:09:37;;;;;;;6.93;4.13;;;0.30;99.90;;;;;;5069922;28;20200;-75
2021/12/01 04:12:03;;;;;;;6.15;3.95;;;0.30;99.90;;;;;;5069912;28;20197;-75
2021/12/01 04:14:29;;;;;;;4.95;3.25;;;0.30;99.90;;;;;;5069821;28;20205;-74
2021/12/01 04:16:55;;;;;;;3.92;2.88;;;0.40;99.90;;;;;;5069971;28;20542;-75
2021/12/01 04:19:21;;;;;;;4.93;3.05;;;0.40;99.90;;;;;;5069917;28;20581;-74
2021/12/01 04:21:47;;;;;;;5.72;3.67;;;0.50;99.90;;;;;;5069811;28;20239;-74
2021/12/01 04:24:13;;;;;;;3.75;2.97;;;0.60;99.90;;;;;;5051821;28;20200;-74
2021/12/01 04:26:39;;;;;;;3.65;3.10;;;0.60;99.90;;;;;;5051420;28;20161;-74
2021/12/01 04:29:06;;;;;;;3.50;2.70;;;0.60;99.90;;;;;;5051860;28;20165;-75
2021/12/01 04:31:35;;;;;;;5.47;3.75;;;0.60;99.90;;;;;;5051830;28;20165;-74
2021/12/01 04:34:03;;;;;;;4.55;3.50;;;0.70;99.90;;;;;;5069712;28;20219;-75
2021/12/01 04:36:33;;;;;;;8.70;3.10;;;0.70;99.90;;;;;;5051579;28;20177;-76
2021/12/01 04:39:00;;;;;;;5.15;3.95;;;0.70;99.90;;;;;;5069200;28;20149;-75
2021/12/01 04:41:28;;;;;;;5.63;3.50;;;0.70;99.90;;;;;;5069226;28;20575;-75
2021/12/01 04:43:54;;;;;;;9.45;4.13;;;0.60;99.90;;;;;;5051457;28;20236;-75
2021/12/01 04:46:20;;;;;;;4.82;4.20;;;0.60;99.90;;;;;;5067634;28;20165;-76
2021/12/01 04:48:48;;;;;;;6.75;3.40;;;0.70;99.90;;;;;;5048483;28;20164;-75
2021/12/01 04:51:17;;;;;;;5.93;3.85;;;0.80;99.90;;;;;;5066310;28;20168;-75
2021/12/01 04:53:44;;;;;;;4.80;3.28;;;0.90;99.90;;;;;;5050613;28;20564;-76
2021/12/01 04:56:10;;;;;;;5.43;3.67;;;0.90;99.90;;;;;;5050452;28;20196;-75
2021/12/01 04:58:36;;;;;;;5.07;3.60;;;0.90;99.90;;;;;;5050967;28;20227;-75
2021/12/01 05:01:03;;;;;;;5.63;3.83;;;0.90;99.90;;;;;;5069094;28;20160;-75
2021/12/01 05:03:32;;;;;;;4.80;3.28;;;1.00;99.90;;;;;;5068991;28;20180;-75
2021/12/01 05:05:58;;;;;;;5.05;2.95;;;1.00;99.90;;;;;;5051374;28;20689;-75
2021/12/01 05:08:24;;;;;;;5.22;3.20;;;1.00;99.90;;;;;;5068945;28;20196;-75
2021/12/01 05:10:51;;;;;;;4.65;3.20;;;1.00;99.90;;;;;;5068982;28;20157;-75
2021/12/01 05:13:17;;;;;;;4.18;2.70;;;1.00;99.90;;;;;;5068746;28;20188;-75
2021/12/01 05:15:43;;;;;;;4.10;3.17;;;1.00;99.90;;;;;;5068795;28;20189;-75
2021/12/01 05:18:09;;;;;;;4.38;3.30;;;1.00;99.90;;;;;;5068953;28;20161;-75
2021/12/01 05:20:35;;;;;;;5.60;3.65;;;0.90;99.90;;;;;;5068902;28;20161;-75
2021/12/01 05:23:02;;;;;;;6.13;3.65;;;0.90;99.90;;;;;;5050818;28;20199;-75
2021/12/01 05:25:28;;;;;;;3.78;2.88;;;0.90;99.90;;;;;;5068867;28;20163;-75
2021/12/01 05:27:56;;;;;;;5.82;3.90;;;0.90;99.90;;;;;;5068641;28;20243;-75
2021/12/01 05:30:22;;;;;;;4.45;3.00;;;0.90;99.90;;;;;;5068913;28;20633;-75
2021/12/01 05:32:48;;;;;;;6.72;4.40;;;0.90;99.90;;;;;;5050688;28;20192;-76
2021/12/01 05:35:14;;;;;;;8.32;4.20;;;0.90;99.90;;;;;;5050402;28;20200;-76
2021/12/01 05:37:40;;;;;;;4.47;3.80;;;0.90;99.90;;;;;;5050750;28;20172;-75
2021/12/01 05:40:07;;;;;;;4.88;3.72;;;0.90;99.90;;;;;;5049436;28;20527;-75
2021/12/01 05:42:33;;;;;;;4.90;4.03;;;1.00;99.90;;;;;;5068262;28;20247;-75
2021/12/01 05:44:59;;;;;;;6.60;3.83;;;0.90;99.90;;;;;;5050603;28;20191;-75
2021/12/01 05:47:24;;;;;;;6.32;4.25;;;0.80;99.90;;;;;;5068435;28;20192;-74
2021/12/01 05:49:50;;;;;;;6.35;3.38;;;0.80;99.90;;;;;;5068628;28;20175;-75
2021/12/01 05:52:17;;;;;;;7.13;4.30;;;0.80;99.90;;;;;;5068129;28;20200;-74
2021/12/01 05:54:44;;;;;;;7.97;4.45;;;0.80;99.90;;;;;;5068446;28;20242;-75
2021/12/01 05:57:10;;;;;;;11.93;7.90;;;0.90;99.90;;;;;;5068399;28;20169;-76
2021/12/01 05:59:36;;;;;;;12.93;7.50;;;1.00;99.90;;;;;;5068459;28;20160;-76
2021/12/01 06:02:02;;;;;;;12.13;6.50;;;1.00;99.90;;;;;;5050017;28;20189;-75
2021/12/01 06:04:28;;;;;;;9.75;6.40;;;1.00;99.90;;;;;;5068222;28;20539;-74
2021/12/01 06:06:55;;;;;;;8.60;5.28;;;1.00;99.90;;;;;;5068216;28;20153;-75
2021/12/01 06:09:21;;;;;;;7.93;4.53;;;1.00;99.90;;;;;;5050361;28;20263;-75
2021/12/01 06:11:48;;;;;;;5.82;3.83;;;1.10;99.90;;;;;;5050138;28;20200;-75
2021/12/01 06:14:16;;;;;;;5.40;4.07;;;1.10;99.90;;;;;;5068153;28;20182;-75
2021/12/01 06:16:43;;;;;;;5.00;4.47;;;1.00;99.90;;;;;;5067966;28;20182;-75
2021/12/01 06:19:10;;;;;;;5.93;4.00;;;1.10;99.90;;;;;;5050394;28;20176;-75
2021/12/01 06:21:36;;;;;;;6.93;4.22;;;1.10;99.90;;;;;;5067912;28;20228;-75
2021/12/01 06:24:02;;;;;;;5.28;3.83;;;1.20;99.90;;;;;;5067648;28;20169;-77
2021/12/01 06:26:28;;;;;;;5.47;3.63;;;1.30;99.90;;;;;;5052353;28;20212;-76
2021/12/01 06:28:54;;;;;;;5.05;3.92;;;1.30;99.90;;;;;;5067841;28;20177;-75
2021/12/01 06:31:20;;;;;;;4.72;3.85;;;1.30;99.90;;;;;;5049570;28;20618;-75
2021/12/01 06:33:46;;;;;;;7.68;4.72;;;1.20;99.90;;;;;;5067367;28;20165;-75
2021/12/01 06:36:12;;;;;;;8.65;4.18;;;1.10;99.90;;;;;;5049859;28;20231;-77
2021/12/01 06:38:39;;;;;;;7.38;4.32;;;1.10;99.90;;;;;;5050224;28;20180;-75
2021/12/01 06:41:06;;;;;;;5.25;4.38;;;1.20;99.90;;;;;;5049669;28;20180;-76
2021/12/01 06:43:33;;;;;;;7.25;4.45;;;1.20;99.90;;;;;;5067845;28;20287;-75
2021/12/01 06:45:58;;;;;;;6.05;3.72;;;1.20;99.90;;;;;;5050110;28;20250;-75
2021/12/01 06:48:24;;;;;;;6.10;4.28;;;1.30;99.90;;;;;;5067957;28;20165;-75
2021/12/01 06:50:50;;;;;;;10.48;5.53;;;1.30;99.90;;;;;;5051642;28;20180;-73
2021/12/01 06:53:17;;;;;;;29.67;10.57;;;1.40;99.90;;;;;;5071335;28;20508;-73
2021/12/01 06:55:43;;;;;;;20.58;8.50;;;1.50;99.90;;;;;;5071226;28;20200;-75
2021/12/01 06:58:09;;;;;;;15.32;7.47;;;1.50;99.90;;;;;;5070724;28;20180;-76
2021/12/01 07:00:34;;;;;;;22.25;7.70;;;1.50;99.90;;;;;;5053423;28;20184;-76
2021/12/01 07:03:00;;;;;;;13.00;6.10;;;1.40;99.90;;;;;;5071253;28;20164;-80
2021/12/01 07:05:26;;;;;;;11.38;6.63;;;1.40;99.90;;;;;;5053425;28;20200;-80
2021/12/01 07:07:52;;;;;;;11.43;6.60;;;1.40;99.90;;;;;;5053385;28;20169;-79
2021/12/01 07:10:19;;;;;;;10.88;7.68;;;1.40;99.90;;;;;;5070987;28;20157;-79
2021/12/01 07:12:46;;;;;;;17.27;7.15;;;1.40;99.90;;;;;;5053384;28;20169;-80
2021/12/01 07:15:13;;;;;;;11.70;7.47;;;1.40;99.90;;;;;;5070434;28;20271;-80
2021/12/01 07:17:41;;;;;;;12.35;7.05;;;1.50;99.90;;;;;;5070702;28;20157;-79
2021/12/01 07:20:09;;;;;;;16.23;7.22;;;1.50;99.90;;;;;;5051386;28;20191;-79
2021/12/01 07:22:36;;;;;;;21.02;8.95;;;1.50;99.90;;;;;;5049363;28;20255;-79
2021/12/01 07:25:03;;;;;;;14.07;6.75;;;1.60;99.90;;;;;;5049782;28;20240;-78
2021/12/01 07:27:29;;;;;;;15.10;7.90;;;1.50;99.90;;;;;;5068496;28;20161;-78
2021/12/01 07:29:55;;;;;;;12.35;6.85;;;1.50;99.90;;;;;;5050316;28;20232;-79
2021/12/01 07:32:21;;;;;;;12.85;7.50;;;1.50;99.90;;;;;;5068195;28;20833;-80
2021/12/01 07:34:47;;;;;;;13.88;8.43;;;1.50;99.90;;;;;;5068174;28;20200;-80
2021/12/01 07:37:16;;;;;;;15.32;8.25;;;1.60;99.90;;;;;;5070154;28;20156;-80
2021/12/01 07:39:43;;;;;;;19.73;9.00;;;1.70;99.90;;;;;;5070597;28;20157;-80
2021/12/01 07:42:10;;;;;;;16.27;8.13;;;1.70;99.90;;;;;;5070790;28;20153;-80
2021/12/01 07:44:36;;;;;;;19.20;7.25;;;1.80;99.90;;;;;;5070560;28;20188;-79
2021/12/01 07:47:03;;;;;;;13.50;7.20;;;1.90;99.90;;;;;;5070630;28;20164;-80
2021/12/01 07:49:29;;;;;;;10.80;6.78;;;1.90;99.90;;;;;;5070618;28;20161;-80
2021/12/01 07:51:55;;;;;;;15.60;7.40;;;2.00;99.90;;;;;;5053503;28;20252;-79
2021/12/01 07:54:21;;;;;;;16.35;7.65;;;2.10;99.90;;;;;;5057343;28;20550;-78
2021/12/01 07:56:47;;;;;;;10.50;6.50;;;2.10;99.90;;;;;;5069971;28;20180;-77
2021/12/01 07:59:15;;;;;;;11.20;7.45;;;2.10;99.90;;;;;;5070274;28;20148;-79
2021/12/01 08:01:43;;;;;;;16.50;7.65;;;2.20;99.90;;;;;;5069190;28;20191;-77
2021/12/01 08:04:10;;;;;;;9.70;6.75;;;2.30;99.90;;;;;;5069947;28;20707;-78
2021/12/01 08:06:37;;;;;;;10.80;7.05;;;2.30;99.90;;;;;;5070173;28;20210;-77
2021/12/01 08:09:05;;;;;;;12.73;7.57;;;2.30;99.90;;;;;;5070101;28;20228;-77
2021/12/01 08:11:31;;;;;;;14.15;6.82;;;2.30;99.90;;;;;;5070030;28;20187;-77
2021/12/01 08:13:57;;;;;;;18.35;8.43;;;2.30;99.90;;;;;;5069118;28;20560;-78
2021/12/01 08:16:23;;;;;;;15.13;7.97;;;2.30;99.90;;;;;;5069370;28;20192;-78
2021/12/01 08:18:54;;;;;;;16.65;8.35;;;2.20;99.90;;;;;;5056763;28;20181;-77
2021/12/01 08:21:24;;;;;;;16.27;7.53;;;2.30;99.90;;;;;;5068554;28;20314;-77
2021/12/01 08:23:52;;;;;;;16.63;8.15;;;2.40;99.90;;;;;;5069547;28;20200;-77
2021/12/01 08:26:18;;;;;;;13.73;7.65;;;2.50;99.90;;;;;;5068416;28;20238;-77
2021/12/01 08:28:47;;;;;;;14.00;7.35;;;2.60;99.90;;;;;;5069696;28;20177;-77
2021/12/01 08:31:15;;;;;;;9.38;6.90;;;2.60;99.90;;;;;;5069840;28;20258;-77
2021/12/01 08:33:41;;;;;;;11.05;6.03;;;2.60;99.90;;;;;;5051428;28;20192;-78
2021/12/01 08:36:08;;;;;;;9.82;5.80;;;2.60;99.90;;;;;;5069482;28;20650;-77
2021/12/01 08:38:33;;;;;;;14.20;6.60;;;2.70;99.90;;;;;;5069496;28;20180;-78
2021/12/01 08:40:59;;;;;;;11.98;6.88;;;2.60;99.90;;;;;;5069597;28;20165;-78
2021/12/01 08:43:25;;;;;;;16.05;7.63;;;2.70;99.90;;;;;;5069215;28;20200;-78
2021/12/01 08:45:51;;;;;;;9.30;5.85;;;2.80;99.90;;;;;;5069364;28;20156;-77
2021/12/01 08:48:17;;;;;;;14.70;6.18;;;2.90;99.90;;;;;;5069637;28;20183;-78
2021/12/01 08:50:43;;;;;;;16.63;6.85;;;3.00;99.90;;;;;;5069189;28;20153;-77
2021/12/01 08:53:09;;;;;;;14.73;6.05;;;3.00;99.90;;;;;;5060975;28;20307;-77
2021/12/01 08:55:37;;;;;;;13.35;7.35;;;2.90;99.90;;;;;;5051506;28;20275;-78
2021/12/01 08:58:03;;;;;;;8.30;5.47;;;3.00;99.90;;;;;;5050644;28;20183;-77
2021/12/01 09:00:33;;;;;;;12.50;6.22;;;3.10;99.90;;;;;;5069184;28;20157;-78
2021/12/01 09:02:59;;;;;;;13.27;6.57;;;3.10;99.90;;;;;;5050897;28;20204;-78
2021/12/01 09:05:26;;;;;;;10.30;5.45;;;3.40;99.90;;;;;;5069089;28;20188;-78
2021/12/01 09:07:52;;;;;;;13.35;6.28;;;3.50;99.90;;;;;;5051179;28;20168;-78
2021/12/01 09:10:18;;;;;;;12.73;6.68;;;3.60;99.90;;;;;;5069174;28;20164;-78
2021/12/01 09:12:45;;;;;;;10.63;6.93;;;3.70;99.90;;;;;;5068689;28;20226;-78
2021/12/01 09:15:11;;;;;;;10.73;6.63;;;3.70;99.90;;;;;;5050838;28;20198;-79
2021/12/01 09:17:36;;;;;;;10.85;5.95;;;3.90;99.90;;;;;;5068679;28;20160;-79
2021/12/01 09:20:04;;;;;;;8.50;5.80;;;4.20;99.90;;;;;;5068924;28;20157;-77
2021/12/01 09:22:30;;;;;;;16.08;7.13;;;4.30;99.90;;;;;;5047458;28;20225;-79
2021/12/01 09:24:56;;;;;;;17.30;6.35;;;4.40;99.90;;;;;;5043553;28;20203;-79
2021/12/01 09:27:22;;;;;;;14.23;7.95;;;4.30;99.90;;;;;;5044806;28;20166;-79
2021/12/01 09:29:48;;;;;;;8.55;5.72;;;4.30;99.90;;;;;;5048843;28;20157;-79
2021/12/01 09:32:13;;;;;;;9.82;6.85;;;4.20;99.90;;;;;;5035506;28;20241;-79
2021/12/01 09:34:41;;;;;;;14.35;6.78;;;3.90;99.90;;;;;;5028962;28;20209;-79
2021/12/01 09:37:08;;;;;;;9.00;5.38;;;4.00;99.90;;;;;;5027729;28;20178;-79
2021/12/01 09:39:34;;;;;;;10.00;6.15;;;3.90;99.90;;;;;;5027669;28;20523;-79
2021/12/01 09:42:01;;;;;;;8.63;5.50;;;3.80;99.90;;;;;;5046547;28;20280;-79
2021/12/01 09:44:28;;;;;;;20.00;4.68;;;3.70;99.90;;;;;;5034906;28;20189;-78
2021/12/01 09:46:54;;;;;;;6.35;4.25;;;3.80;99.90;;;;;;5027482;28;20182;-78
2021/12/01 09:49:20;;;;;;;6.22;3.97;;;4.00;99.90;;;;;;5028567;28;20242;-78
2021/12/01 09:51:46;;;;;;;10.35;4.13;;;4.10;99.90;;;;;;5027589;28;20197;-79
2021/12/01 09:54:13;;;;;;;8.63;4.35;;;3.90;99.90;;;;;;5027461;28;20170;-79
2021/12/01 09:56:38;;;;;;;8.30;5.47;;;4.10;99.90;;;;;;5028806;28;20194;-78
2021/12/01 09:59:04;;;;;;;10.30;5.28;;;4.10;99.90;;;;;;5048338;28;20208;-78
2021/12/01 10:01:31;;;;;;;10.00;4.68;;;4.00;99.90;;;;;;5048604;28;20236;-77
2021/12/01 10:03:58;;;;;;;8.57;5.13;;;4.20;99.90;;;;;;5045567;28;20582;-79
2021/12/01 10:06:26;;;;;;;9.48;5.45;;;4.10;99.90;;;;;;5046670;28;20165;-78
2021/12/01 10:08:55;;;;;;;13.68;6.88;;;4.30;99.90;;;;;;5048429;28;20161;-78
2021/12/01 10:11:27;;;;;;;7.95;4.38;;;4.30;99.90;;;;;;5045731;28;20237;-78
2021/12/01 10:13:57;;;;;;;12.38;4.25;;;4.50;99.90;;;;;;5046872;28;20540;-78
2021/12/01 10:16:25;;;;;;;7.25;4.47;;;4.80;99.90;;;;;;5048179;28;20185;-79
2021/12/01 10:18:54;;;;;;;7.00;4.35;;;5.00;99.90;;;;;;5047996;28;20162;-78
2021/12/01 10:21:32;;;;;;;12.98;4.40;;;5.10;99.90;;;;;;5046858;28;20247;-78
2021/12/01 10:24:06;;;;;;;9.27;4.80;;;5.20;99.90;;;;;;5046756;28;20183;-78
2021/12/01 10:26:38;;;;;;;9.95;5.25;;;5.10;99.90;;;;;;5049929;28;20196;-77
2021/12/01 10:29:09;;;;;;;11.32;5.30;;;4.90;99.90;;;;;;5051149;28;20219;-78
2021/12/01 10:31:41;;;;;;;13.15;5.15;;;5.10;99.90;;;;;;5051795;28;20181;-75
2021/12/01 10:34:21;;;;;;;14.18;4.78;;;5.50;99.90;;;;;;5050442;28;20205;-76
2021/12/01 10:37:07;;;;;;;6.80;4.38;;;5.70;99.90;;;;;;5051576;28;20213;-75
2021/12/01 10:39:33;;;;;;;7.95;4.10;;;5.80;99.90;;;;;;5050539;28;20288;-76
2021/12/01 10:42:08;;;;;;;5.50;3.03;;;5.80;99.90;;;;;;5050516;28;20177;-76
2021/12/01 10:44:35;;;;;;;7.57;3.63;;;6.00;99.90;;;;;;5050496;28;20172;-76
2021/12/01 10:47:11;;;;;;;10.18;6.18;;;6.40;99.90;;;;;;5051452;28;20624;-76
2021/12/01 10:49:43;;;;;;;10.02;3.72;;;6.30;99.90;;;;;;5051474;28;20180;-76
2021/12/01 10:52:42;;;;;;;8.18;3.17;;;6.30;99.90;;;;;;5051776;28;20248;-78
2021/12/01 10:55:17;;;;;;;6.05;2.45;;;6.80;99.90;;;;;;4993604;28;20306;-79
2021/12/01 10:57:47;;;;;;;3.65;2.47;;;7.20;99.90;;;;;;5010059;28;20232;-79
2021/12/01 11:00:28;;;;;;;4.97;3.25;;;7.60;99.90;;;;;;5009956;28;20178;-79
2021/12/01 11:03:13;;;;;;;8.95;2.92;;;7.90;99.90;;;;;;5009718;28;20213;-79
2021/12/01 11:05:48;;;;;;;5.18;3.05;;;7.90;99.90;;;;;;5009422;28;20261;-79
2021/12/01 11:08:27;;;;;;;5.97;3.15;;;7.50;99.90;;;;;;5009942;28;20754;-78
2021/12/01 11:10:54;;;;;;;4.47;2.55;;;7.50;99.90;;;;;;5009515;28;20217;-78
2021/12/01 11:13:22;;;;;;;8.68;3.85;;;7.70;99.90;;;;;;5009560;28;20277;-78
2021/12/01 11:16:00;;;;;;;6.30;3.10;;;8.40;99.90;;;;;;5009586;28;20201;-79
2021/12/01 11:18:33;;;;;;;17.15;4.22;;;9.20;99.90;;;;;;4993072;28;20266;-78
2021/12/01 11:21:00;;;;;;;11.43;4.00;;;9.30;99.90;;;;;;5009470;28;20183;-79
2021/12/01 11:23:34;;;;;;;9.88;3.58;;;9.00;99.90;;;;;;5008998;28;20234;-78
2021/12/01 11:26:05;;;;;;;8.77;4.10;;;9.20;99.90;;;;;;4993141;28;20181;-77
2021/12/01 11:28:40;;;;;;;7.50;3.08;;;8.90;99.90;;;;;;5007844;28;20206;-78
2021/12/01 11:31:12;;;;;;;9.38;3.75;;;8.90;99.90;;;;;;5034814;28;20196;-78
2021/12/01 11:33:43;;;;;;;11.35;4.70;;;9.30;99.90;;;;;;5043421;28;20662;-79
2021/12/01 11:36:11;;;;;;;10.20;3.25;;;9.90;99.90;;;;;;5030411;28;20257;-80
2021/12/01 11:38:37;;;;;;;3.88;3.05;;;10.10;99.90;;;;;;5043944;28;20170;-79
2021/12/01 11:41:05;;;;;;;4.55;2.65;;;10.30;99.90;;;;;;5050760;28;20146;-77
2021/12/01 11:43:33;;;;;;;18.08;3.85;;;10.80;99.90;;;;;;5050439;28;20193;-78
2021/12/01 11:46:00;;;;;;;21.77;4.18;;;11.50;99.90;;;;;;5050491;28;20165;-78
2021/12/01 11:48:33;;;;;;;6.75;3.10;;;12.10;99.90;;;;;;5049505;28;20175;-78
2021/12/01 11:51:14;;;;;;;9.93;3.45;;;12.40;99.90;;;;;;5050592;28;20153;-78
2021/12/01 11:54:05;;;;;;;5.78;3.08;;;12.50;99.90;;;;;;5049053;28;20201;-80
2021/12/01 11:56:35;;;;;;;6.57;2.83;;;12.50;99.90;;;;;;5035508;28;20216;-80
2021/12/01 11:59:03;;;;;;;4.32;2.50;;;11.60;99.90;;;;;;5044431;28;20638;-79
2021/12/01 12:01:35;;;;;;;3.75;2.20;;;11.00;99.90;;;;;;5037987;28;20249;-81
2021/12/01 12:04:01;;;;;;;6.97;2.55;;;10.80;99.90;;;;;;5050174;28;20220;-78
2021/12/01 12:06:30;;;;;;;4.43;2.35;;;11.70;99.90;;;;;;5033904;28;20201;-74
2021/12/01 12:08:56;;;;;;;5.63;2.58;;;11.20;99.90;;;;;;5048716;28;20180;-77
2021/12/01 12:11:35;;;;;;;2.20;1.90;;;11.00;99.90;;;;;;5049797;28;20169;-76
2021/12/01 12:14:05;;;;;;;8.20;2.47;;;10.80;99.90;;;;;;5049729;28;20189;-77
2021/12/01 12:16:31;;;;;;;7.32;2.90;;;11.20;99.90;;;;;;5048175;28;20197;-77
2021/12/01 12:18:59;;;;;;;9.85;2.30;;;11.60;99.90;;;;;;5029953;28;20177;-76
2021/12/01 12:21:44;;;;;;;8.40;3.05;;;11.20;99.90;;;;;;5034336;28;20243;-76
2021/12/01 12:24:19;;;;;;;7.65;2.95;;;10.60;99.90;;;;;;5069450;28;20199;-75
2021/12/01 12:26:49;;;;;;;7.45;3.53;;;9.90;99.90;;;;;;5051794;28;20236;-78
2021/12/01 12:29:18;;;;;;;19.60;3.38;;;9.60;99.90;;;;;;5069834;28;20228;-78
2021/12/01 12:31:47;;;;;;;6.10;3.03;;;9.30;99.90;;;;;;5069609;28;20187;-78
2021/12/01 12:34:15;;;;;;;6.63;3.13;;;8.90;99.90;;;;;;5069644;28;20159;-79
2021/12/01 12:36:43;;;;;;;4.93;3.00;;;8.30;99.90;;;;;;5049916;28;20276;-79
2021/12/01 12:39:22;;;;;;;7.65;3.60;;;8.00;99.90;;;;;;5068973;28;20179;-80
2021/12/01 12:41:54;;;;;;;19.42;5.40;;;8.00;99.90;;;;;;5049266;28;20215;-80
2021/12/01 12:44:43;;;;;;;3.88;2.70;;;8.10;99.90;;;;;;5048318;28;20532;-79
2021/12/01 12:47:12;;;;;;;23.83;4.45;;;8.30;99.90;;;;;;5049439;28;20177;-78
2021/12/01 12:49:53;;;;;;;7.82;3.45;;;8.40;99.90;;;;;;5050517;28;20208;-79
2021/12/01 12:52:25;;;;;;;9.00;4.03;;;8.50;99.90;;;;;;5069442;28;20174;-79
2021/12/01 12:54:57;;;;;;;10.63;3.92;;;8.50;99.90;;;;;;5068801;28;20219;-79
2021/12/01 12:57:25;;;;;;;9.18;4.22;;;8.10;99.90;;;;;;5057592;28;20190;-79
2021/12/01 13:00:20;;;;;;;8.52;3.55;;;7.90;99.90;;;;;;5071041;28;20196;-77
2021/12/01 13:02:46;;;;;;;7.63;3.67;;;8.10;99.90;;;;;;5071098;28;20228;-78